Time,TemperatureF,DewpointF,PressureIn,WindDirection,WindDirectionDegrees,WindSpeedMPH,WindSpeedGustMPH,Humidity,HourlyPrecipIn,Conditions,Clouds,dailyrainin,SoftwareType,DateUTC
2013-02-21 00:00:00,18.0,13.7,30.43,NNE,18,1.0,3.0,83,0.00,,,0.00,Wunderground v.1.15,2013-02-21 06:00:00,
2013-02-21 00:05:00,17.9,13.6,30.43,NNE,18,2.0,3.0,83,0.00,,,0.00,Wunderground v.1.15,2013-02-21 06:05:00,
2013-02-21 00:15:00,17.9,13.6,30.43,NNE,18,3.0,3.0,83,0.00,,,0.00,Wunderground v.1.15,2013-02-21 06:15:00,
2013-02-21 00:20:00,18.0,14.0,30.44,NNE,18,2.0,2.0,84,0.00,,,0.00,Wunderground v.1.15,2013-02-21 06:20:00,
2013-02-21 00:30:00,18.1,14.1,30.43,NNE,19,3.0,4.0,84,0.00,,,0.00,Wunderground v.1.15,2013-02-21 06:30:00,
2013-02-21 00:35:00,18.2,14.2,30.43,NNE,29,4.0,4.0,84,0.00,,,0.00,Wunderground v.1.15,2013-02-21 06:35:00,
2013-02-21 00:40:00,18.3,14.3,30.43,NNE,29,4.0,4.0,84,0.00,,,0.00,Wunderground v.1.15,2013-02-21 06:40:00,
2013-02-21 00:50:00,18.3,14.0,30.44,NE,49,3.0,3.0,83,0.00,,,0.00,Wunderground v.1.15,2013-02-21 06:50:00,
2013-02-21 00:55:00,18.2,13.6,30.43,NE,49,3.0,3.0,82,0.00,,,0.00,Wunderground v.1.15,2013-02-21 06:55:00,
2013-02-21 01:00:00,18.1,13.5,30.44,NE,49,3.0,3.0,82,0.00,,,0.00,Wunderground v.1.15,2013-02-21 07:00:00,
2013-02-21 01:10:00,17.9,13.3,30.43,NE,49,3.0,4.0,82,0.00,,,0.00,Wunderground v.1.15,2013-02-21 07:10:00,
2013-02-21 01:15:00,17.9,13.3,30.43,NE,49,3.0,4.0,82,0.00,,,0.00,Wunderground v.1.15,2013-02-21 07:15:00,
2013-02-21 01:25:00,17.7,13.1,30.43,NE,49,3.0,3.0,82,0.00,,,0.00,Wunderground v.1.15,2013-02-21 07:25:00,
2013-02-21 01:35:00,17.6,13.0,30.43,NE,50,3.0,4.0,82,0.00,,,0.00,Wunderground v.1.15,2013-02-21 07:35:00,
2013-02-21 01:40:00,17.6,12.8,30.43,NE,51,3.0,3.0,81,0.00,,,0.00,Wunderground v.1.15,2013-02-21 07:40:00,
2013-02-21 01:50:00,17.5,12.7,30.42,NE,51,4.0,4.0,81,0.00,,,0.00,Wunderground v.1.15,2013-02-21 07:50:00,
2013-02-21 01:55:00,17.4,12.8,30.43,NE,51,4.0,4.0,82,0.00,,,0.00,Wunderground v.1.15,2013-02-21 07:55:00,
2013-02-21 02:05:00,17.3,12.5,30.42,NE,51,3.0,4.0,81,0.00,,,0.00,Wunderground v.1.15,2013-02-21 08:05:00,
2013-02-21 02:10:00,17.3,12.7,30.42,NE,51,4.0,4.0,82,0.00,,,0.00,Wunderground v.1.15,2013-02-21 08:10:00,
2013-02-21 02:20:00,17.2,12.6,30.43,NE,51,3.0,3.0,82,0.00,,,0.00,Wunderground v.1.15,2013-02-21 08:20:00,
2013-02-21 02:30:00,17.0,12.2,30.43,NE,51,1.0,1.0,81,0.00,,,0.00,Wunderground v.1.15,2013-02-21 08:30:00,
2013-02-21 02:35:00,16.9,12.1,30.42,NE,51,0.0,1.0,81,0.00,,,0.00,Wunderground v.1.15,2013-02-21 08:35:00,
2013-02-21 02:45:00,16.7,11.9,30.42,NE,51,0.0,0.0,81,0.00,,,0.00,Wunderground v.1.15,2013-02-21 08:45:00,
2013-02-21 02:55:00,16.3,11.5,30.42,NE,51,0.0,0.0,81,0.00,,,0.00,Wunderground v.1.15,2013-02-21 08:55:00,
2013-02-21 03:00:00,16.2,11.4,30.42,NE,51,0.0,0.0,81,0.00,,,0.00,Wunderground v.1.15,2013-02-21 09:00:00,
2013-02-21 03:10:00,15.9,11.1,30.41,NE,51,0.0,0.0,81,0.00,,,0.00,Wunderground v.1.15,2013-02-21 09:10:00,
2013-02-21 03:15:00,15.8,11.3,30.41,NE,51,0.0,0.0,82,0.00,,,0.00,Wunderground v.1.15,2013-02-21 09:15:00,
2013-02-21 03:25:00,15.6,11.1,30.42,NE,51,0.0,0.0,82,0.00,,,0.00,Wunderground v.1.15,2013-02-21 09:25:00,
2013-02-21 03:35:00,15.3,10.8,30.41,NE,51,0.0,0.0,82,0.00,,,0.00,Wunderground v.1.15,2013-02-21 09:35:00,
2013-02-21 03:45:00,15.1,10.6,30.42,NE,51,0.0,0.0,82,0.00,,,0.00,Wunderground v.1.15,2013-02-21 09:45:00,
2013-02-21 03:50:00,14.9,10.4,30.42,NE,51,0.0,0.0,82,0.00,,,0.00,Wunderground v.1.15,2013-02-21 09:50:00,
2013-02-21 03:55:00,14.7,10.2,30.43,NE,51,0.0,0.0,82,0.00,,,0.00,Wunderground v.1.15,2013-02-21 09:55:00,
2013-02-21 04:05:00,14.3,9.5,30.43,NE,51,0.0,0.0,81,0.00,,,0.00,Wunderground v.1.15,2013-02-21 10:05:00,
2013-02-21 04:15:00,13.9,9.4,30.43,NE,51,0.0,0.0,82,0.00,,,0.00,Wunderground v.1.15,2013-02-21 10:15:00,
2013-02-21 04:20:00,13.8,9.3,30.43,NE,51,0.0,0.0,82,0.00,,,0.00,Wunderground v.1.15,2013-02-21 10:20:00,
2013-02-21 04:30:00,13.6,9.4,30.43,NE,51,0.0,0.0,83,0.00,,,0.00,Wunderground v.1.15,2013-02-21 10:30:00,
2013-02-21 04:35:00,13.6,9.4,30.43,NE,51,0.0,0.0,83,0.00,,,0.00,Wunderground v.1.15,2013-02-21 10:35:00,
2013-02-21 04:45:00,13.5,9.6,30.43,NE,51,0.0,0.0,84,0.00,,,0.00,Wunderground v.1.15,2013-02-21 10:45:00,
2013-02-21 04:55:00,13.6,9.9,30.42,NE,51,0.0,0.0,85,0.00,,,0.00,Wunderground v.1.15,2013-02-21 10:55:00,
2013-02-21 05:00:00,13.6,9.9,30.42,NE,51,0.0,0.0,85,0.00,,,0.00,Wunderground v.1.15,2013-02-21 11:00:00,
2013-02-21 05:05:00,13.7,10.0,30.43,NE,51,0.0,0.0,85,0.00,,,0.00,Wunderground v.1.15,2013-02-21 11:05:00,
2013-02-21 05:10:00,13.7,10.0,30.43,NE,51,0.0,0.0,85,0.00,,,0.00,Wunderground v.1.15,2013-02-21 11:10:00,
2013-02-21 05:20:00,13.8,10.1,30.44,NE,51,0.0,0.0,85,0.00,,,0.00,Wunderground v.1.15,2013-02-21 11:20:00,
2013-02-21 05:25:00,14.0,10.3,30.43,NE,51,0.0,3.0,85,0.00,,,0.00,Wunderground v.1.15,2013-02-21 11:25:00,
2013-02-21 05:30:00,14.2,10.5,30.42,NE,51,2.0,4.0,85,0.00,,,0.00,Wunderground v.1.15,2013-02-21 11:30:00,
2013-02-21 05:40:00,14.7,11.0,30.41,NE,51,4.0,4.0,85,0.00,,,0.00,Wunderground v.1.15,2013-02-21 11:40:00,
2013-02-21 05:50:00,15.0,11.3,30.40,NE,51,3.0,3.0,85,0.00,,,0.00,Wunderground v.1.15,2013-02-21 11:50:00,
2013-02-21 05:55:00,15.2,11.5,30.41,NE,51,2.0,3.0,85,0.00,,,0.00,Wunderground v.1.15,2013-02-21 11:55:00,
2013-02-21 06:05:00,15.8,12.4,30.41,NE,51,2.0,3.0,86,0.00,,,0.00,Wunderground v.1.15,2013-02-21 12:05:00,
2013-02-21 06:15:00,16.6,13.1,30.41,NE,51,3.0,3.0,86,0.00,,,0.00,Wunderground v.1.15,2013-02-21 12:15:00,
2013-02-21 06:20:00,17.0,13.5,30.42,NE,52,3.0,3.0,86,0.00,,,0.00,Wunderground v.1.15,2013-02-21 12:20:00,
2013-02-21 06:30:00,17.7,14.2,30.42,NE,52,2.0,3.0,86,0.00,,,0.00,Wunderground v.1.15,2013-02-21 12:30:00,
2013-02-21 06:35:00,17.9,14.2,30.42,NE,52,2.0,3.0,85,0.00,,,0.00,Wunderground v.1.15,2013-02-21 12:35:00,
2013-02-21 06:45:00,18.2,14.4,30.43,NE,52,1.0,2.0,85,0.00,,,0.00,Wunderground v.1.15,2013-02-21 12:45:00,
2013-02-21 06:55:00,18.5,14.7,30.42,NE,52,0.0,0.0,85,0.00,,,0.00,Wunderground v.1.15,2013-02-21 12:55:00,
2013-02-21 07:00:00,18.6,14.8,30.41,NE,52,1.0,3.0,85,0.00,,,0.00,Wunderground v.1.15,2013-02-21 13:00:00,
2013-02-21 07:10:00,19.0,15.2,30.40,NE,52,3.0,4.0,85,0.00,,,0.00,Wunderground v.1.15,2013-02-21 13:10:00,
2013-02-21 07:20:00,19.4,17.7,30.40,NE,52,3.0,3.0,93,0.00,,,0.00,Wunderground v.1.15,2013-02-21 13:20:00,
2013-02-21 07:30:00,19.8,15.7,30.40,NE,53,3.0,3.0,84,0.00,,,0.00,Wunderground v.1.15,2013-02-21 13:30:00,
2013-02-21 07:35:00,20.0,16.2,30.40,NE,53,3.0,3.0,85,0.00,,,0.00,Wunderground v.1.15,2013-02-21 13:35:00,
2013-02-21 07:45:00,20.7,16.9,30.40,ENE,59,4.0,5.0,85,0.00,,,0.00,Wunderground v.1.15,2013-02-21 13:45:00,
2013-02-21 07:55:00,21.6,17.8,30.41,ENE,62,5.0,7.0,85,0.00,,,0.00,Wunderground v.1.15,2013-02-21 13:55:00,
2013-02-21 08:00:00,22.1,18.0,30.42,ENE,60,4.0,4.0,84,0.00,,,0.00,Wunderground v.1.15,2013-02-21 14:00:00,
2013-02-21 08:05:00,22.6,18.2,30.41,ENE,63,5.0,5.0,83,0.00,,,0.00,Wunderground v.1.15,2013-02-21 14:05:00,
2013-02-21 08:15:00,23.3,18.6,30.42,ENE,67,5.0,5.0,82,0.00,,,0.00,Wunderground v.1.15,2013-02-21 14:15:00,
2013-02-21 08:25:00,23.8,19.1,30.42,ENE,74,4.0,4.0,82,0.00,,,0.00,Wunderground v.1.15,2013-02-21 14:25:00,
2013-02-21 08:30:00,24.1,19.4,30.41,NE,46,4.0,6.0,82,0.00,,,0.00,Wunderground v.1.15,2013-02-21 14:30:00,
2013-02-21 10:10:00,26.9,20.0,30.39,East,86,7.0,9.0,75,0.00,,,0.00,Wunderground v.1.15,2013-02-21 16:10:00,
2013-02-21 11:45:00,30.1,21.8,30.31,ENE,72,9.0,9.0,71,0.00,,,0.00,Wunderground v.1.15,2013-02-21 17:45:00,
2013-02-21 11:50:00,30.3,21.3,30.31,ENE,61,9.0,10.0,69,0.00,,,0.00,Wunderground v.1.15,2013-02-21 17:50:00,
2013-02-21 11:55:00,30.3,21.7,30.29,East,80,11.0,11.0,70,0.00,,,0.00,Wunderground v.1.15,2013-02-21 17:55:00,
2013-02-21 12:00:00,30.4,21.8,30.27,East,82,11.0,15.0,70,0.00,,,0.00,Wunderground v.1.15,2013-02-21 18:00:00,
2013-02-21 12:10:00,30.5,22.2,30.25,ENE,65,11.0,11.0,71,0.00,,,0.00,Wunderground v.1.15,2013-02-21 18:10:00,
2013-02-21 12:15:00,30.7,22.4,30.25,East,80,11.0,13.0,71,0.00,,,0.00,Wunderground v.1.15,2013-02-21 18:15:00,
2013-02-21 12:20:00,30.8,22.2,30.23,ENE,61,11.0,11.0,70,0.00,,,0.00,Wunderground v.1.15,2013-02-21 18:20:00,
2013-02-21 12:25:00,30.9,22.3,30.22,ENE,64,11.0,15.0,70,0.00,,,0.00,Wunderground v.1.15,2013-02-21 18:25:00,
2013-02-21 12:30:00,30.8,22.2,30.24,ENE,70,11.0,11.0,70,0.00,,,0.00,Wunderground v.1.15,2013-02-21 18:30:00,
2013-02-21 12:35:00,30.8,21.8,30.24,ENE,75,10.0,15.0,69,0.00,,,0.00,Wunderground v.1.15,2013-02-21 18:35:00,
2013-02-21 12:45:00,30.6,22.3,30.22,ENE,68,11.0,15.0,71,0.00,,,0.00,Wunderground v.1.15,2013-02-21 18:45:00,
2013-02-21 12:50:00,30.5,21.9,30.22,ENE,63,10.0,10.0,70,0.00,,,0.00,Wunderground v.1.15,2013-02-21 18:50:00,
2013-02-21 14:00:00,30.5,21.9,30.27,ENE,63,8.0,8.0,70,0.00,,,0.00,Wunderground v.1.15,2013-02-21 20:00:00,
2013-02-21 14:10:00,30.6,22.3,30.27,ENE,59,6.0,7.0,71,0.00,,,0.00,Wunderground v.1.15,2013-02-21 20:10:00,
2013-02-21 14:20:00,30.6,22.3,30.27,ENE,65,5.0,5.0,71,0.00,,,0.00,Wunderground v.1.15,2013-02-21 20:20:00,
2013-02-21 14:25:00,30.6,22.3,30.27,NE,56,6.0,7.0,71,0.00,,,0.00,Wunderground v.1.15,2013-02-21 20:25:00,
2013-02-21 14:35:00,30.6,22.3,30.25,ENE,67,6.0,8.0,71,0.00,,,0.00,Wunderground v.1.15,2013-02-21 20:35:00,
2013-02-21 14:45:00,30.6,22.3,30.25,ENE,76,8.0,8.0,71,0.00,,,0.00,Wunderground v.1.15,2013-02-21 20:45:00,
2013-02-21 14:55:00,30.5,21.9,30.25,NE,55,8.0,8.0,70,0.00,,,0.00,Wunderground v.1.15,2013-02-21 20:55:00,
2013-02-21 15:00:00,30.5,22.2,30.26,ENE,67,8.0,8.0,71,0.00,,,0.00,Wunderground v.1.15,2013-02-21 21:00:00,
2013-02-21 15:05:00,30.4,22.1,30.26,ENE,75,8.0,9.0,71,0.00,,,0.00,Wunderground v.1.15,2013-02-21 21:05:00,
2013-02-21 15:15:00,30.3,22.4,30.25,ENE,71,8.0,8.0,72,0.00,,,0.00,Wunderground v.1.15,2013-02-21 21:15:00,
2013-02-21 15:20:00,30.3,22.0,30.24,ENE,74,8.0,8.0,71,0.00,,,0.00,Wunderground v.1.15,2013-02-21 21:20:00,
2013-02-21 15:30:00,30.2,22.3,30.23,East,85,8.0,8.0,72,0.00,,,0.00,Wunderground v.1.15,2013-02-21 21:30:00,
2013-02-21 15:35:00,30.1,21.8,30.22,East,80,8.0,8.0,71,0.00,,,0.00,Wunderground v.1.15,2013-02-21 21:35:00,
2013-02-21 15:45:00,29.9,22.0,30.22,East,86,9.0,9.0,72,0.00,,,0.00,Wunderground v.1.15,2013-02-21 21:45:00,
2013-02-21 15:50:00,29.9,22.3,30.24,East,82,8.0,8.0,73,0.00,,,0.00,Wunderground v.1.15,2013-02-21 21:50:00,
2013-02-21 16:00:00,29.8,22.2,30.23,East,82,8.0,8.0,73,0.00,,,0.00,Wunderground v.1.15,2013-02-21 22:00:00,
2013-02-21 16:10:00,29.8,22.2,30.22,ENE,78,9.0,9.0,73,0.00,,,0.00,Wunderground v.1.15,2013-02-21 22:10:00,
2013-02-21 16:15:00,29.8,22.2,30.21,East,92,9.0,9.0,73,0.00,,,0.00,Wunderground v.1.15,2013-02-21 22:15:00,
2013-02-21 16:25:00,29.8,22.2,30.22,East,84,7.0,8.0,73,0.00,,,0.00,Wunderground v.1.15,2013-02-21 22:25:00,
2013-02-21 16:30:00,29.8,22.5,30.22,East,80,6.0,6.0,74,0.00,,,0.00,Wunderground v.1.15,2013-02-21 22:30:00,
2013-02-21 16:40:00,29.6,23.3,30.22,East,88,7.0,11.0,77,0.00,,,0.00,Wunderground v.1.15,2013-02-21 22:40:00,
2013-02-21 16:45:00,29.4,23.7,30.22,East,82,7.0,11.0,79,0.00,,,0.00,Wunderground v.1.15,2013-02-21 22:45:00,
2013-02-21 16:55:00,28.8,24.0,30.22,East,93,7.0,7.0,82,0.00,,,0.00,Wunderground v.1.15,2013-02-21 22:55:00,
2013-02-21 17:05:00,28.5,24.0,30.20,ENE,77,6.0,7.0,83,0.00,,,0.00,Wunderground v.1.15,2013-02-21 23:05:00,
2013-02-21 17:15:00,28.2,24.0,30.20,ENE,74,7.0,8.0,84,0.00,,,0.00,Wunderground v.1.15,2013-02-21 23:15:00,
2013-02-21 17:25:00,28.0,24.1,30.20,East,85,7.0,7.0,85,0.00,,,0.00,Wunderground v.1.15,2013-02-21 23:25:00,
2013-02-21 17:30:00,27.9,24.0,30.19,East,83,7.0,7.0,85,0.00,,,0.00,Wunderground v.1.15,2013-02-21 23:30:00,
2013-02-21 17:40:00,27.8,24.2,30.18,ENE,70,7.0,7.0,86,0.00,,,0.00,Wunderground v.1.15,2013-02-21 23:40:00,
2013-02-21 17:50:00,27.6,24.0,30.17,East,86,8.0,8.0,86,0.00,,,0.00,Wunderground v.1.15,2013-02-21 23:50:00,
2013-02-21 17:55:00,27.6,24.2,30.17,ENE,75,7.0,10.0,87,0.00,,,0.00,Wunderground v.1.15,2013-02-21 23:55:00,
2013-02-21 18:00:00,27.5,24.1,30.16,ENE,69,7.0,8.0,87,0.00,,,0.00,Wunderground v.1.15,2013-02-22 00:00:00,
2013-02-21 18:05:00,27.5,26.0,30.15,ENE,64,8.0,8.0,94,0.00,,,0.00,Wunderground v.1.15,2013-02-22 00:05:00,
2013-02-21 18:10:00,27.4,24.0,30.14,ENE,69,8.0,8.0,87,0.00,,,0.00,Wunderground v.1.15,2013-02-22 00:10:00,
2013-02-21 18:20:00,27.3,23.9,30.14,ENE,77,8.0,9.0,87,0.00,,,0.00,Wunderground v.1.15,2013-02-22 00:20:00,
2013-02-21 18:25:00,27.2,24.1,30.13,ENE,77,8.0,9.0,88,0.00,,,0.00,Wunderground v.1.15,2013-02-22 00:25:00,
2013-02-21 18:30:00,27.2,23.8,30.13,NE,53,9.0,9.0,87,0.00,,,0.00,Wunderground v.1.15,2013-02-22 00:30:00,
2013-02-21 18:40:00,27.1,24.0,30.12,ENE,62,10.0,10.0,88,0.00,,,0.00,Wunderground v.1.15,2013-02-22 00:40:00,
2013-02-21 18:50:00,27.1,24.0,30.11,ENE,71,9.0,10.0,88,0.00,,,0.00,Wunderground v.1.15,2013-02-22 00:50:00,
2013-02-21 18:55:00,27.0,23.9,30.10,East,83,10.0,15.0,88,0.00,,,0.00,Wunderground v.1.15,2013-02-22 00:55:00,
2013-02-21 19:00:00,27.0,23.9,30.09,ENE,63,10.0,10.0,88,0.00,,,0.00,Wunderground v.1.15,2013-02-22 01:00:00,
2013-02-21 19:10:00,26.9,23.8,30.08,ENE,62,11.0,11.0,88,0.00,,,0.00,Wunderground v.1.15,2013-02-22 01:10:00,
2013-02-21 19:20:00,26.9,23.8,30.06,ENE,78,11.0,12.0,88,0.00,,,0.00,Wunderground v.1.15,2013-02-22 01:20:00,
2013-02-21 19:25:00,27.0,23.9,30.05,East,80,12.0,12.0,88,0.00,,,0.00,Wunderground v.1.15,2013-02-22 01:25:00,
2013-02-21 19:35:00,27.0,23.9,30.05,ENE,61,14.0,17.0,88,0.00,,,0.00,Wunderground v.1.15,2013-02-22 01:35:00,
2013-02-21 19:40:00,27.0,23.9,30.05,East,80,14.0,14.0,88,0.00,,,0.00,Wunderground v.1.15,2013-02-22 01:40:00,
2013-02-21 19:45:00,27.0,23.9,30.05,East,80,14.0,14.0,88,0.00,,,0.00,Wunderground v.1.15,2013-02-22 01:45:00,
2013-02-21 19:50:00,27.1,24.0,30.05,ENE,67,13.0,13.0,88,0.00,,,0.00,Wunderground v.1.15,2013-02-22 01:50:00,
2013-02-21 19:55:00,27.2,24.1,30.05,East,94,14.0,14.0,88,0.00,,,0.00,Wunderground v.1.15,2013-02-22 01:55:00,
2013-02-21 20:05:00,27.6,24.5,30.02,ESE,112,14.0,22.0,88,0.00,,,0.00,Wunderground v.1.15,2013-02-22 02:05:00,
2013-02-21 20:10:00,27.8,24.7,30.02,ENE,67,15.0,15.0,88,0.00,,,0.00,Wunderground v.1.15,2013-02-22 02:10:00,
2013-02-21 20:20:00,27.7,24.3,30.01,East,83,14.0,17.0,87,0.00,,,0.00,Wunderground v.1.15,2013-02-22 02:20:00,
2013-02-21 20:30:00,27.5,24.1,30.01,ENE,59,14.0,14.0,87,0.00,,,0.00,Wunderground v.1.15,2013-02-22 02:30:00,
2013-02-21 20:35:00,27.4,24.0,30.01,ENE,60,14.0,14.0,87,0.00,,,0.00,Wunderground v.1.15,2013-02-22 02:35:00,
2013-02-21 20:45:00,27.4,24.0,30.02,East,96,12.0,13.0,87,0.00,,,0.00,Wunderground v.1.15,2013-02-22 02:45:00,
2013-02-21 20:55:00,27.4,24.0,30.03,ENE,74,12.0,15.0,87,0.00,,,0.00,Wunderground v.1.15,2013-02-22 02:55:00,
2013-02-21 21:05:00,27.6,24.2,30.03,ENE,77,11.0,15.0,87,0.00,,,0.00,Wunderground v.1.15,2013-02-22 03:05:00,
2013-02-21 21:10:00,27.6,24.2,30.04,East,86,10.0,10.0,87,0.00,,,0.00,Wunderground v.1.15,2013-02-22 03:10:00,
2013-02-21 21:20:00,27.8,24.7,30.04,ENE,73,10.0,10.0,88,0.00,,,0.00,Wunderground v.1.15,2013-02-22 03:20:00,
2013-02-21 21:25:00,27.9,24.8,30.04,ENE,77,10.0,11.0,88,0.00,,,0.00,Wunderground v.1.15,2013-02-22 03:25:00,
2013-02-21 21:30:00,28.1,25.0,30.03,ENE,66,10.0,10.0,88,0.00,,,0.00,Wunderground v.1.15,2013-02-22 03:30:00,
2013-02-21 21:35:00,28.4,25.3,30.03,ENE,71,10.0,12.0,88,0.00,,,0.00,Wunderground v.1.15,2013-02-22 03:35:00,
2013-02-21 21:45:00,29.0,26.2,30.03,East,82,10.0,14.0,89,0.00,,,0.00,Wunderground v.1.15,2013-02-22 03:45:00,
2013-02-21 21:50:00,29.1,26.3,30.03,ESE,104,10.0,11.0,89,0.00,,,0.00,Wunderground v.1.15,2013-02-22 03:50:00,
2013-02-21 22:00:00,29.2,26.4,30.03,ESE,103,9.0,9.0,89,0.00,,,0.00,Wunderground v.1.15,2013-02-22 04:00:00,
2013-02-21 22:10:00,29.3,26.5,30.00,East,84,9.0,16.0,89,0.00,,,0.00,Wunderground v.1.15,2013-02-22 04:10:00,
2013-02-21 22:15:00,29.3,26.5,30.00,East,92,9.0,16.0,89,0.00,,,0.00,Wunderground v.1.15,2013-02-22 04:15:00,
2013-02-21 22:25:00,29.4,26.6,30.01,ESE,110,9.0,15.0,89,0.00,,,0.00,Wunderground v.1.15,2013-02-22 04:25:00,
2013-02-21 22:30:00,29.5,26.7,30.00,ENE,78,9.0,9.0,89,0.00,,,0.00,Wunderground v.1.15,2013-02-22 04:30:00,
2013-02-21 22:40:00,29.8,27.0,29.98,East,82,9.0,10.0,89,0.00,,,0.00,Wunderground v.1.15,2013-02-22 04:40:00,
2013-02-21 22:50:00,29.9,27.1,29.98,East,95,10.0,14.0,89,0.00,,,0.00,Wunderground v.1.15,2013-02-22 04:50:00,
2013-02-21 22:55:00,29.9,27.1,29.98,East,87,10.0,14.0,89,0.00,,,0.00,Wunderground v.1.15,2013-02-22 04:55:00,
2013-02-21 23:00:00,30.0,27.2,29.98,East,84,9.0,9.0,89,0.00,,,0.00,Wunderground v.1.15,2013-02-22 05:00:00,
2013-02-21 23:05:00,30.0,27.2,29.98,ENE,75,8.0,9.0,89,0.00,,,0.00,Wunderground v.1.15,2013-02-22 05:05:00,
2013-02-21 23:10:00,30.0,27.2,29.98,East,86,8.0,11.0,89,0.00,,,0.00,Wunderground v.1.15,2013-02-22 05:10:00,
2013-02-21 23:20:00,30.0,27.2,29.98,ENE,77,8.0,8.0,89,0.00,,,0.00,Wunderground v.1.15,2013-02-22 05:20:00,
2013-02-21 23:25:00,30.0,27.2,29.97,East,89,7.0,8.0,89,0.00,,,0.00,Wunderground v.1.15,2013-02-22 05:25:00,
2013-02-21 23:30:00,30.1,27.3,29.98,ESE,119,6.0,13.0,89,0.00,,,0.00,Wunderground v.1.15,2013-02-22 05:30:00,
2013-02-21 23:40:00,30.4,27.5,29.97,East,84,6.0,7.0,89,0.00,,,0.00,Wunderground v.1.15,2013-02-22 05:40:00,
2013-02-21 23:45:00,30.5,27.6,29.97,East,95,6.0,15.0,89,0.00,,,0.00,Wunderground v.1.15,2013-02-22 05:45:00,
2013-02-21 23:55:00,30.6,27.7,29.97,ESE,105,7.0,9.0,89,0.00,,,0.00,Wunderground v.1.15,2013-02-22 05:55:00,